createdAt,value
2023-04-15T00:01:23.625Z,7.62
2023-04-15T00:06:27.084Z,7.70
2023-04-15T00:11:31.011Z,7.75
2023-04-15T00:16:33.290Z,7.71
2023-04-15T00:21:36.870Z,7.74
2023-04-15T00:26:39.304Z,7.66
2023-04-15T00:31:41.379Z,7.70
2023-04-15T00:36:44.835Z,7.68
2023-04-15T00:41:46.740Z,7.74
2023-04-15T00:46:50.908Z,7.78
2023-04-15T00:51:57.333Z,7.84
2023-04-15T00:56:59.720Z,7.82
2023-04-15T01:02:01.931Z,7.83
2023-04-15T01:07:05.306Z,7.92
2023-04-15T01:12:08.080Z,7.87
2023-04-15T01:17:10.584Z,7.95
2023-04-15T01:22:14.530Z,7.89
2023-04-15T01:27:18.073Z,7.88
2023-04-15T01:32:20.329Z,7.89
2023-04-15T01:37:22.139Z,7.88
2023-04-15T01:42:26.449Z,7.92
2023-04-15T01:47:28.547Z,8.00
2023-04-15T01:52:30.555Z,7.97
2023-04-15T01:57:34.093Z,7.97
2023-04-15T02:02:36.266Z,7.91
2023-04-15T02:07:38.398Z,7.94
2023-04-15T02:12:41.877Z,7.88
2023-04-15T02:17:44.112Z,7.90
2023-04-15T02:22:45.825Z,7.83
2023-04-15T02:27:49.022Z,7.82
2023-04-15T02:32:51.045Z,7.81
2023-04-15T02:37:53.136Z,7.82
2023-04-15T02:42:56.619Z,7.75
2023-04-15T02:47:58.829Z,7.74
2023-04-15T02:53:00.852Z,7.75
2023-04-15T02:58:04.677Z,7.75
2023-04-15T03:03:07.088Z,7.74
2023-04-15T03:08:09.352Z,7.74
2023-04-15T03:13:12.602Z,7.77
2023-04-15T03:18:14.805Z,7.79
2023-04-15T03:23:16.850Z,7.78
2023-04-15T03:28:20.399Z,7.82
2023-04-15T03:33:22.512Z,7.82
2023-04-15T03:38:24.255Z,7.85
2023-04-15T03:43:27.705Z,7.85
2023-04-15T03:48:29.752Z,7.85
2023-04-15T03:53:31.854Z,7.86
2023-04-15T03:58:35.240Z,7.88
2023-04-15T04:03:37.528Z,7.90
2023-04-15T04:08:39.333Z,7.92
2023-04-15T04:13:42.422Z,8.01
2023-04-15T04:18:44.341Z,8.21
2023-04-15T04:23:46.191Z,8.31
2023-04-15T04:28:49.764Z,8.17
2023-04-15T04:33:51.826Z,8.34
2023-04-15T04:38:54.479Z,8.28
2023-04-15T04:43:57.990Z,8.18
2023-04-15T04:49:00.188Z,8.15
2023-04-15T04:54:03.698Z,8.14
2023-04-15T04:59:07.336Z,8.15
2023-04-15T05:04:09.606Z,8.16
2023-04-15T05:09:11.478Z,8.23
2023-04-15T05:14:14.986Z,8.30
2023-04-15T05:19:17.285Z,8.33
2023-04-15T05:24:19.707Z,8.46
2023-04-15T05:29:23.115Z,8.63
2023-04-15T05:34:25.304Z,8.63
2023-04-15T05:39:27.444Z,8.68
2023-04-15T05:44:30.917Z,8.70
2023-04-15T05:49:32.654Z,8.83
2023-04-15T05:54:34.631Z,8.95
2023-04-15T05:59:37.689Z,9.04
2023-04-15T06:04:39.458Z,9.30
2023-04-15T06:09:42.250Z,9.28
2023-04-15T06:14:45.865Z,9.49
2023-04-15T06:19:47.813Z,9.57
2023-04-15T06:24:50.838Z,9.65
2023-04-15T06:29:54.466Z,9.80
2023-04-15T06:34:56.622Z,10.06
2023-04-15T06:39:58.764Z,10.34
2023-04-15T06:45:05.996Z,10.49
2023-04-15T06:50:09.124Z,10.61
2023-04-15T06:55:12.405Z,10.92
2023-04-15T07:00:16.353Z,10.89
2023-04-15T07:05:18.713Z,11.05
2023-04-15T07:10:21.061Z,11.17
2023-04-15T07:15:24.605Z,11.58
2023-04-15T07:20:26.608Z,11.50
2023-04-15T07:25:28.427Z,11.51
2023-04-15T07:30:31.867Z,11.14
2023-04-15T07:35:33.654Z,10.96
2023-04-15T07:40:35.706Z,10.70
2023-04-15T07:45:39.305Z,10.96
2023-04-15T07:50:41.427Z,10.78
2023-04-15T07:55:43.573Z,10.64
2023-04-15T08:00:47.187Z,10.73
2023-04-15T08:05:48.899Z,10.87
2023-04-15T08:10:52.597Z,10.84
2023-04-15T08:16:16.500Z,10.67
2023-04-15T08:21:20.054Z,10.56
2023-04-15T08:26:21.895Z,10.56
2023-04-15T08:31:27.286Z,10.47
2023-04-15T08:36:29.353Z,10.37
2023-04-15T08:41:39.328Z,10.15
2023-04-15T08:46:42.630Z,9.93
2023-04-15T08:51:45.428Z,9.91
2023-04-15T08:56:48.443Z,9.95
2023-04-15T09:01:52.103Z,10.01
2023-04-15T09:06:54.357Z,10.02
2023-04-15T09:11:57.066Z,10.01
2023-04-15T09:17:02.036Z,10.15
2023-04-15T09:22:04.685Z,10.20
2023-04-15T09:27:07.819Z,10.24
2023-04-15T09:32:13.317Z,10.22
2023-04-15T09:37:31.354Z,10.34
2023-04-15T09:42:34.825Z,10.20
2023-04-15T09:47:39.162Z,10.24
2023-04-15T09:52:42.954Z,10.25
2023-04-15T09:57:46.286Z,10.25
2023-04-15T10:02:49.987Z,10.18
2023-04-15T10:07:51.913Z,10.14
2023-04-15T10:12:55.561Z,10.11
2023-04-15T10:18:01.749Z,10.09
2023-04-15T10:23:04.899Z,10.00
2023-04-15T10:28:11.182Z,10.00
2023-04-15T10:33:16.094Z,10.01
2023-04-15T10:38:36.732Z,10.02
2023-04-15T10:43:39.254Z,10.02
2023-04-15T10:48:49.419Z,10.08
2023-04-15T10:53:51.265Z,10.12
2023-04-15T10:58:53.218Z,10.21
2023-04-15T11:03:56.480Z,10.21
2023-04-15T11:09:00.369Z,10.30
2023-04-15T11:14:05.119Z,10.18
2023-04-15T11:19:11.081Z,10.11
2023-04-15T11:24:24.562Z,10.16
2023-04-15T11:29:29.602Z,10.18
2023-04-15T11:34:34.559Z,10.12
2023-04-15T11:39:38.070Z,10.20
2023-04-15T11:44:39.755Z,10.15
2023-04-15T11:49:43.326Z,10.13
2023-04-15T11:54:45.093Z,10.08
2023-04-15T11:59:46.816Z,10.21
2023-04-15T12:04:50.011Z,10.08
2023-04-15T12:09:55.422Z,10.18
2023-04-15T12:14:57.522Z,10.30
2023-04-15T12:20:00.689Z,10.39
2023-04-15T12:25:06.323Z,10.63
2023-04-15T12:30:08.821Z,10.57
2023-04-15T12:35:12.697Z,10.49
2023-04-15T12:40:14.849Z,10.56
2023-04-15T12:45:16.921Z,10.61
2023-04-15T12:50:20.351Z,10.83
2023-04-15T12:55:22.461Z,10.96
2023-04-15T13:00:24.540Z,11.12
2023-04-15T13:05:27.644Z,10.93
2023-04-15T13:10:29.998Z,10.89
2023-04-15T13:15:32.424Z,10.95
2023-04-15T13:20:36.636Z,10.78
2023-04-15T13:25:39.498Z,10.85
2023-04-15T13:30:41.729Z,10.82
2023-04-15T13:35:45.425Z,10.80
2023-04-15T13:40:47.844Z,10.93
2023-04-15T13:45:50.268Z,10.97
2023-04-15T13:50:53.700Z,11.04
2023-04-15T13:55:56.519Z,11.02
2023-04-15T14:00:58.738Z,11.01
2023-04-15T14:06:02.090Z,10.84
2023-04-15T14:11:03.921Z,10.92
2023-04-15T14:16:06.106Z,10.93
2023-04-15T14:21:09.196Z,10.89
2023-04-15T14:26:11.273Z,11.01
2023-04-15T14:31:13.040Z,10.96
2023-04-15T14:36:16.850Z,10.80
2023-04-15T14:41:19.030Z,10.75
2023-04-15T14:46:21.462Z,10.92
2023-04-15T14:51:24.908Z,10.92
2023-04-15T14:56:27.096Z,10.82
2023-04-15T15:01:29.148Z,10.66
2023-04-15T15:06:32.880Z,10.78
2023-04-15T15:11:34.688Z,10.65
2023-04-15T15:16:37.618Z,10.48
2023-04-15T15:21:40.751Z,10.48
2023-04-15T15:26:42.733Z,10.46
2023-04-15T15:31:44.867Z,10.46
2023-04-15T15:36:48.552Z,10.52
2023-04-15T15:41:50.357Z,10.62
2023-04-15T15:46:52.182Z,10.64
2023-04-15T15:51:56.060Z,10.58
2023-04-15T15:56:57.796Z,10.64
2023-04-15T16:01:59.749Z,10.54
2023-04-15T16:07:02.924Z,10.57
2023-04-15T16:12:05.027Z,10.48
2023-04-15T16:17:06.717Z,10.44
2023-04-15T16:22:09.882Z,10.44
2023-04-15T16:27:12.545Z,10.50
2023-04-15T16:32:14.639Z,10.47
2023-04-15T16:37:18.104Z,10.44
2023-04-15T16:42:19.868Z,10.35
2023-04-15T16:47:21.767Z,10.33
2023-04-15T16:52:24.863Z,10.24
2023-04-15T16:57:27.191Z,10.18
2023-04-15T17:02:49.355Z,10.13
2023-04-15T17:07:58.427Z,10.18
2023-04-15T17:13:00.182Z,10.32
2023-04-15T17:18:02.184Z,10.26
2023-04-15T17:23:05.989Z,10.32
2023-04-15T17:28:08.417Z,10.35
2023-04-15T17:33:55.952Z,10.41
2023-04-15T17:38:33.729Z,10.33
2023-04-15T17:43:35.483Z,10.26
2023-04-15T17:48:37.664Z,10.29
2023-04-15T17:53:41.196Z,10.13
2023-04-15T17:58:43.226Z,10.02
2023-04-15T18:03:45.913Z,9.97
2023-04-15T18:08:49.039Z,9.97
2023-04-15T18:13:50.914Z,10.03
2023-04-15T18:18:54.131Z,10.03
2023-04-15T18:23:57.210Z,9.93
2023-04-15T18:28:59.199Z,9.89
2023-04-15T18:34:01.389Z,9.87
2023-04-15T18:39:05.279Z,9.85
2023-04-15T18:44:07.744Z,9.85
2023-04-15T18:49:11.585Z,9.80
2023-04-15T18:54:15.916Z,9.76
2023-04-15T18:59:29.801Z,9.79
2023-04-15T19:04:38.743Z,9.77
2023-04-15T19:09:41.992Z,9.77
2023-04-15T19:14:43.760Z,9.76
2023-04-15T19:19:45.845Z,9.76
2023-04-15T19:24:49.542Z,9.80
2023-04-15T19:29:51.986Z,9.73
2023-04-15T19:34:54.068Z,9.72
2023-04-15T19:39:57.160Z,9.72
2023-04-15T19:45:01.590Z,9.71
2023-04-15T19:50:04.338Z,9.72
2023-04-15T19:55:08.719Z,9.71
2023-04-15T20:00:11.551Z,9.71
2023-04-15T20:05:13.419Z,9.70
2023-04-15T20:10:16.551Z,9.71
2023-04-15T20:15:18.363Z,9.74
2023-04-15T20:20:21.125Z,9.70
2023-04-15T20:25:25.272Z,9.68
2023-04-15T20:30:27.425Z,9.66
2023-04-15T20:35:29.351Z,9.65
2023-04-15T20:40:32.477Z,9.64
2023-04-15T20:45:34.396Z,9.63
2023-04-15T20:50:36.546Z,9.63
2023-04-15T20:55:39.598Z,9.67
2023-04-15T21:00:41.977Z,9.68
2023-04-15T21:05:43.841Z,9.83
2023-04-15T21:10:47.128Z,9.77
2023-04-15T21:15:49.224Z,9.84
2023-04-15T21:20:56.801Z,9.84
2023-04-15T21:26:00.246Z,9.87
2023-04-15T21:31:02.902Z,9.86
2023-04-15T21:36:05.540Z,9.80
2023-04-15T21:41:08.843Z,9.79
2023-04-15T21:46:23.469Z,9.79
2023-04-15T21:51:27.408Z,9.78
2023-04-15T21:56:30.722Z,9.85
2023-04-15T22:01:32.850Z,9.78
2023-04-15T22:06:35.355Z,9.86
2023-04-15T22:11:38.769Z,9.83
2023-04-15T22:16:40.498Z,9.77
2023-04-15T22:21:42.812Z,9.80
2023-04-15T22:26:46.255Z,9.66
2023-04-15T22:31:48.658Z,9.62
2023-04-15T22:36:51.965Z,9.60
2023-04-15T22:41:55.462Z,9.58
2023-04-15T22:46:57.191Z,9.62
2023-04-15T22:51:58.938Z,9.69
2023-04-15T22:57:02.571Z,9.70
2023-04-15T23:02:04.753Z,9.76
2023-04-15T23:07:06.543Z,9.57
2023-04-15T23:12:10.169Z,9.70
2023-04-15T23:17:12.181Z,9.60
2023-04-15T23:22:14.225Z,9.56
2023-04-15T23:27:17.719Z,9.53
2023-04-15T23:32:20.093Z,9.50
2023-04-15T23:37:22.066Z,9.54
2023-04-15T23:42:25.582Z,9.67
2023-04-15T23:47:27.562Z,9.64
2023-04-15T23:52:29.741Z,9.66
2023-04-15T23:57:33.229Z,9.63
